WADD/DPS METAR and TAF weather

Enter ICAO airport designator
Station Type Date Time Source
WADD METAR 2020/07/06 02:30 UTC NOAA

WADD 060230Z 11017KT 9999 SCT017 28/26 Q1012 NOSIG=


Station Type Date Time Source
WADD Decoded METAR 2020/07/06 02:30 UTC NOAA

Station name not available
Jul 05, 2020 - 10:30 PM EDT / 2020.07.06 0230 UTC
Wind: from the ESE (110 degrees) at 20 MPH (17 KT):0
Visibility: greater than 7 mile(s):0
Sky conditions: partly cloudy
Temperature: 82 F (28 C)
Dew Point: 78 F (26 C)
Relative Humidity: 88%
Pressure (altimeter): 29.88 in. Hg (1012 hPa)
ob: WADD 060230Z 11017KT 9999 SCT017 28/26 Q1012 NOSIG=
cycle: 2

Station Type Date Time Source
WADD TAF 2020/07/05 18:12 UTC NOAA

TAF TAF WADD 051700Z 0518/0618 11012KT 9999 SCT017
TEMPO 0520/0600 BKN015

Example: see airport list